Time;durP1;ratioP1;P1;durP2;ratioP2;P2;SDS_P1;SDS_P2;PMS_P1;PMS_P2;Temp;Humidity;BMP_temperature;BMP_pressure;BME280_temperature;BME280_humidity;BME280_pressure;Samples;Min_cycle;Max_cycle;Signal;HPM_P1;HPM_P2
2020/12/19 00:01:48;;;;;;;14.82;7.65;;;9.40;63.90;;;;;;5028707;28;20041;-64
2020/12/19 00:04:13;;;;;;;16.30;7.45;;;9.40;63.90;;;;;;5029258;28;20067;-64
2020/12/19 00:06:48;;;;;;;13.18;8.00;;;9.40;63.80;;;;;;5025525;28;20115;-64
2020/12/19 00:09:14;;;;;;;12.52;7.57;;;9.40;63.80;;;;;;5020348;28;20164;-64
2020/12/19 00:11:43;;;;;;;13.05;8.15;;;9.40;63.60;;;;;;5022312;28;20037;-64
2020/12/19 00:14:09;;;;;;;15.10;7.72;;;9.40;63.70;;;;;;5024037;28;20067;-65
2020/12/19 00:16:34;;;;;;;14.25;7.90;;;9.40;63.80;;;;;;5028298;28;20144;-65
2020/12/19 00:19:00;;;;;;;12.57;7.88;;;9.30;63.70;;;;;;5030192;28;20490;-64
2020/12/19 00:21:33;;;;;;;13.25;8.20;;;9.30;63.70;;;;;;5021660;28;20996;-64
2020/12/19 00:23:59;;;;;;;13.15;7.97;;;9.30;64.40;;;;;;5036135;28;20451;-64
2020/12/19 00:26:35;;;;;;;10.63;7.30;;;9.30;63.80;;;;;;5023543;28;20037;-64
2020/12/19 00:29:01;;;;;;;14.02;7.82;;;9.30;63.80;;;;;;5024061;28;20037;-64
2020/12/19 00:31:27;;;;;;;17.58;8.27;;;9.30;63.90;;;;;;5019804;28;20754;-65
2020/12/19 00:33:53;;;;;;;11.30;7.63;;;9.30;63.90;;;;;;5026173;28;20149;-64
2020/12/19 00:36:19;;;;;;;14.77;7.93;;;9.30;63.90;;;;;;5037874;28;20041;-64
2020/12/19 00:38:44;;;;;;;16.40;8.70;;;9.30;63.90;;;;;;5023884;28;20441;-65
2020/12/19 00:41:17;;;;;;;15.73;7.97;;;9.30;63.80;;;;;;5026856;28;20044;-65
2020/12/19 00:43:42;;;;;;;13.18;7.93;;;9.20;63.80;;;;;;5026254;28;20037;-65
2020/12/19 00:46:12;;;;;;;15.13;8.48;;;9.20;63.80;;;;;;5023637;28;20114;-65
2020/12/19 00:48:39;;;;;;;15.95;8.75;;;9.20;63.80;;;;;;5022044;28;20029;-65
2020/12/19 00:51:04;;;;;;;14.18;8.25;;;9.20;63.80;;;;;;5021333;28;20066;-65
2020/12/19 00:53:30;;;;;;;19.55;8.82;;;9.20;63.90;;;;;;5026708;28;20041;-65
2020/12/19 00:55:56;;;;;;;11.75;7.88;;;9.20;64.00;;;;;;5023123;28;20033;-65
2020/12/19 00:58:21;;;;;;;14.88;8.60;;;9.20;64.10;;;;;;5028304;28;20522;-65
2020/12/19 01:00:47;;;;;;;14.70;8.30;;;9.20;64.00;;;;;;5023535;28;20705;-65
2020/12/19 01:03:13;;;;;;;16.48;9.30;;;9.10;64.00;;;;;;5026193;28;20029;-65
2020/12/19 01:05:38;;;;;;;21.23;9.50;;;9.10;64.00;;;;;;5022393;28;20044;-65
2020/12/19 01:08:04;;;;;;;19.83;9.15;;;9.10;64.00;;;;;;5026360;28;20029;-65
2020/12/19 01:10:29;;;;;;;17.40;9.30;;;9.10;64.00;;;;;;5026819;28;20040;-65
2020/12/19 01:12:55;;;;;;;14.50;9.30;;;9.10;64.10;;;;;;5032282;28;20112;-65
2020/12/19 01:15:20;;;;;;;21.00;10.02;;;9.10;64.20;;;;;;5022696;28;20037;-65
2020/12/19 01:17:46;;;;;;;15.75;9.18;;;9.10;64.20;;;;;;5028030;28;20037;-65
2020/12/19 01:20:12;;;;;;;18.20;10.43;;;9.10;64.00;;;;;;5027603;28;20045;-65
2020/12/19 01:22:37;;;;;;;16.67;9.48;;;9.00;64.80;;;;;;5026323;28;20041;-65
2020/12/19 01:25:03;;;;;;;19.40;10.02;;;9.00;64.10;;;;;;5021999;28;20067;-65
2020/12/19 01:27:28;;;;;;;17.83;9.98;;;9.00;64.00;;;;;;5027249;28;20090;-65
2020/12/19 01:29:54;;;;;;;18.10;8.98;;;9.00;64.10;;;;;;5024225;28;20188;-65
2020/12/19 01:32:19;;;;;;;17.70;9.57;;;9.00;64.10;;;;;;5029246;28;20084;-65
2020/12/19 01:34:45;;;;;;;17.67;9.57;;;8.90;64.10;;;;;;5029481;28;20037;-65
2020/12/19 01:37:11;;;;;;;23.33;9.82;;;8.90;64.20;;;;;;5030560;28;20126;-65
2020/12/19 01:39:36;;;;;;;15.88;10.13;;;8.90;64.20;;;;;;5027892;28;20094;-65
2020/12/19 01:42:02;;;;;;;20.50;10.07;;;8.90;64.20;;;;;;5028303;28;20497;-65
2020/12/19 01:44:27;;;;;;;19.50;10.30;;;8.90;64.30;;;;;;5021526;28;20029;-66
2020/12/19 01:46:54;;;;;;;19.67;10.90;;;8.90;64.40;;;;;;5025166;28;20552;-65
2020/12/19 01:49:25;;;;;;;22.80;10.85;;;8.90;64.30;;;;;;5025420;28;20033;-65
2020/12/19 01:51:57;;;;;;;17.55;10.02;;;8.90;64.20;;;;;;5024025;28;20041;-65
2020/12/19 01:54:23;;;;;;;17.23;11.05;;;8.90;64.40;;;;;;5026330;28;20036;-65
2020/12/19 01:56:50;;;;;;;19.45;10.70;;;8.90;64.40;;;;;;5028347;28;20115;-65
2020/12/19 01:59:16;;;;;;;21.83;11.75;;;8.90;64.50;;;;;;5022633;28;20367;-65
2020/12/19 02:01:45;;;;;;;20.90;10.88;;;8.90;64.50;;;;;;5023537;28;20083;-65
2020/12/19 02:04:11;;;;;;;21.15;11.13;;;8.90;64.50;;;;;;5027110;28;20133;-65
2020/12/19 02:06:39;;;;;;;20.52;10.38;;;8.90;64.50;;;;;;5026593;28;20814;-65
2020/12/19 02:09:06;;;;;;;22.48;11.70;;;8.90;64.60;;;;;;5025764;28;20036;-65
2020/12/19 02:11:32;;;;;;;19.02;10.95;;;8.90;64.50;;;;;;5023184;28;20099;-65
2020/12/19 02:13:58;;;;;;;20.25;11.63;;;8.90;64.50;;;;;;5025769;28;20476;-65
2020/12/19 02:16:24;;;;;;;21.33;11.40;;;8.90;64.50;;;;;;5030711;28;21136;-65
2020/12/19 02:18:49;;;;;;;24.98;13.15;;;8.90;64.60;;;;;;5025867;28;20041;-65
2020/12/19 02:21:15;;;;;;;24.38;11.80;;;8.90;64.80;;;;;;5023835;28;20050;-65
2020/12/19 02:23:40;;;;;;;18.58;11.13;;;8.90;64.80;;;;;;5028318;28;20056;-65
2020/12/19 02:26:06;;;;;;;25.27;12.02;;;8.90;64.80;;;;;;5026224;28;20108;-65
2020/12/19 02:28:32;;;;;;;25.23;12.02;;;8.90;64.70;;;;;;5027935;28;20040;-65
2020/12/19 02:30:57;;;;;;;23.20;12.13;;;8.90;64.70;;;;;;5025451;28;20910;-65
2020/12/19 02:33:23;;;;;;;24.08;13.55;;;8.90;64.80;;;;;;5024590;28;20047;-65
2020/12/19 02:35:48;;;;;;;23.23;12.07;;;8.90;64.80;;;;;;5027938;28;20033;-65
2020/12/19 02:38:14;;;;;;;22.17;12.10;;;8.90;64.80;;;;;;5026305;28;20504;-65
2020/12/19 02:40:40;;;;;;;27.40;13.35;;;8.90;64.80;;;;;;5019746;28;20044;-65
2020/12/19 02:43:05;;;;;;;24.35;12.32;;;8.90;64.80;;;;;;5024953;28;20444;-65
2020/12/19 02:45:31;;;;;;;24.10;13.77;;;8.90;64.90;;;;;;5027731;28;20451;-65
2020/12/19 02:47:56;;;;;;;27.85;13.68;;;8.90;65.00;;;;;;5021006;28;20044;-65
2020/12/19 02:50:22;;;;;;;28.15;13.27;;;8.90;65.10;;;;;;5023040;28;21127;-65
2020/12/19 02:52:47;;;;;;;25.70;13.60;;;8.90;65.10;;;;;;5040837;28;20373;-65
2020/12/19 02:55:13;;;;;;;25.77;13.05;;;8.90;65.10;;;;;;5028363;28;20043;-65
2020/12/19 02:57:39;;;;;;;28.98;14.05;;;8.90;65.20;;;;;;5024832;28;20037;-65
2020/12/19 03:00:05;;;;;;;28.88;14.00;;;8.90;65.20;;;;;;5020793;28;20292;-65
2020/12/19 03:02:31;;;;;;;28.70;13.77;;;8.90;65.20;;;;;;5024079;28;20287;-65
2020/12/19 03:04:57;;;;;;;26.00;12.77;;;8.90;65.20;;;;;;5028249;28;20055;-65
2020/12/19 03:07:22;;;;;;;26.35;14.13;;;8.90;65.20;;;;;;5022217;28;20040;-65
2020/12/19 03:09:48;;;;;;;27.33;14.20;;;8.90;65.30;;;;;;5024054;28;20032;-65
2020/12/19 03:12:13;;;;;;;27.63;14.27;;;8.90;65.40;;;;;;5022259;28;20037;-65
2020/12/19 03:14:39;;;;;;;31.00;15.48;;;8.90;65.50;;;;;;5025567;28;20068;-65
2020/12/19 03:17:05;;;;;;;31.45;14.65;;;8.90;65.50;;;;;;5024199;28;20415;-65
2020/12/19 03:19:30;;;;;;;23.60;13.52;;;8.90;65.50;;;;;;5022278;28;20080;-65
2020/12/19 03:21:56;;;;;;;31.35;14.60;;;8.90;65.50;;;;;;5023912;28;20040;-65
2020/12/19 03:24:21;;;;;;;30.17;14.60;;;9.00;65.50;;;;;;5025897;28;20040;-65
2020/12/19 03:26:47;;;;;;;31.42;14.50;;;9.00;65.60;;;;;;5022262;28;20133;-65
2020/12/19 03:29:13;;;;;;;28.23;13.43;;;8.90;65.40;;;;;;5021965;28;20037;-65
2020/12/19 03:31:38;;;;;;;31.83;14.13;;;9.00;65.60;;;;;;5022212;28;20091;-65
2020/12/19 03:34:05;;;;;;;30.08;15.07;;;9.00;65.60;;;;;;5026152;28;20049;-65
2020/12/19 03:36:30;;;;;;;33.67;15.63;;;9.00;65.50;;;;;;5024020;28;20056;-65
2020/12/19 03:38:56;;;;;;;34.75;15.90;;;9.00;65.60;;;;;;5025587;28;20041;-65
2020/12/19 03:41:22;;;;;;;26.92;14.85;;;9.00;65.60;;;;;;5020315;28;20378;-65
2020/12/19 03:43:47;;;;;;;33.75;15.30;;;9.00;65.60;;;;;;5022423;28;20429;-65
2020/12/19 03:46:13;;;;;;;36.97;16.05;;;9.00;65.60;;;;;;5024701;28;20033;-65
2020/12/19 03:48:39;;;;;;;36.80;15.75;;;9.00;65.60;;;;;;5018672;28;20037;-65
2020/12/19 03:51:04;;;;;;;34.65;15.73;;;9.00;65.70;;;;;;5021114;28;20108;-65
2020/12/19 03:53:30;;;;;;;39.80;16.50;;;9.00;65.70;;;;;;5021120;28;20092;-65
2020/12/19 03:55:56;;;;;;;39.95;17.80;;;9.00;65.80;;;;;;5038810;28;20063;-65
2020/12/19 03:58:21;;;;;;;34.90;16.90;;;9.10;65.90;;;;;;5027083;28;20065;-65
2020/12/19 04:00:47;;;;;;;35.45;16.45;;;9.10;65.90;;;;;;5026951;28;20037;-65
2020/12/19 04:03:13;;;;;;;37.72;16.90;;;9.10;65.90;;;;;;5029003;28;20112;-65
2020/12/19 04:05:38;;;;;;;37.38;16.23;;;9.10;65.80;;;;;;5028440;28;20048;-65
2020/12/19 04:08:04;;;;;;;38.08;16.38;;;9.10;65.90;;;;;;5030344;28;20069;-65
2020/12/19 04:10:30;;;;;;;31.63;16.52;;;9.10;65.80;;;;;;5024487;28;20572;-65
2020/12/19 04:12:55;;;;;;;35.78;17.35;;;9.10;65.90;;;;;;5024266;28;20041;-65
2020/12/19 04:15:24;;;;;;;39.05;17.08;;;9.10;65.90;;;;;;5028497;28;20061;-65
2020/12/19 04:17:51;;;;;;;36.97;16.48;;;9.10;65.90;;;;;;5025948;28;20091;-65
2020/12/19 04:20:17;;;;;;;41.28;17.35;;;9.10;65.80;;;;;;5025798;28;20773;-65
2020/12/19 04:22:43;;;;;;;39.10;16.75;;;9.10;65.90;;;;;;5029908;28;20045;-65
2020/12/19 04:25:11;;;;;;;40.95;17.58;;;9.20;66.00;;;;;;5025540;28;20037;-65
2020/12/19 04:27:38;;;;;;;42.45;18.13;;;9.10;65.90;;;;;;5024808;28;20055;-65
2020/12/19 04:30:11;;;;;;;41.28;17.33;;;9.10;65.80;;;;;;5026456;28;20037;-65
2020/12/19 04:32:37;;;;;;;41.05;17.25;;;9.10;65.70;;;;;;5023998;28;20037;-65
2020/12/19 04:35:04;;;;;;;40.58;16.67;;;9.10;65.80;;;;;;5028006;28;20033;-65
2020/12/19 04:37:30;;;;;;;44.75;17.95;;;9.10;65.70;;;;;;5032727;28;20071;-65
2020/12/19 04:39:55;;;;;;;39.65;17.70;;;9.10;65.80;;;;;;5020570;28;20060;-65
2020/12/19 04:42:21;;;;;;;41.60;17.75;;;9.10;65.80;;;;;;5022491;28;20539;-65
2020/12/19 04:44:48;;;;;;;40.72;17.45;;;9.00;65.70;;;;;;5038978;28;20477;-65
2020/12/19 04:47:14;;;;;;;42.78;18.30;;;9.00;65.60;;;;;;5022804;28;20164;-65
2020/12/19 04:49:42;;;;;;;45.17;18.13;;;9.00;65.70;;;;;;5028094;28;20041;-65
2020/12/19 04:52:08;;;;;;;46.25;18.55;;;9.00;65.70;;;;;;5023976;28;20065;-65
2020/12/19 04:54:35;;;;;;;42.53;17.38;;;9.00;65.70;;;;;;5023085;28;20140;-65
2020/12/19 04:57:02;;;;;;;45.28;19.25;;;9.00;65.70;;;;;;5029382;28;20648;-65
2020/12/19 04:59:27;;;;;;;43.38;19.40;;;9.00;65.80;;;;;;5037464;28;20045;-65
2020/12/19 05:01:53;;;;;;;41.55;18.30;;;9.00;65.90;;;;;;5039573;28;20051;-65
2020/12/19 05:04:19;;;;;;;43.15;19.13;;;9.00;65.90;;;;;;5024661;28;20071;-65
2020/12/19 05:06:46;;;;;;;45.97;19.70;;;9.00;65.90;;;;;;5023043;28;20041;-65
2020/12/19 05:09:11;;;;;;;50.90;19.95;;;9.00;65.90;;;;;;5022839;28;20044;-65
2020/12/19 05:11:37;;;;;;;48.42;19.33;;;9.00;65.90;;;;;;5042272;28;20060;-65
2020/12/19 05:14:05;;;;;;;50.92;20.33;;;9.00;65.90;;;;;;5023397;28;20033;-65
2020/12/19 05:16:31;;;;;;;50.08;19.83;;;9.00;65.90;;;;;;5025605;28;20036;-65
2020/12/19 05:18:57;;;;;;;43.10;20.38;;;9.00;65.80;;;;;;5027186;28;20037;-65
2020/12/19 05:21:24;;;;;;;54.42;21.35;;;9.00;66.00;;;;;;5024956;28;20038;-65
2020/12/19 05:23:50;;;;;;;49.42;21.42;;;8.90;65.90;;;;;;5024573;28;20041;-65
2020/12/19 05:26:16;;;;;;;48.70;20.05;;;8.90;65.90;;;;;;5020506;28;20056;-65
2020/12/19 05:28:43;;;;;;;48.88;21.20;;;8.90;65.80;;;;;;5020654;28;20724;-65
2020/12/19 05:31:10;;;;;;;66.90;23.42;;;8.90;65.70;;;;;;5022369;28;20029;-65
2020/12/19 05:33:41;;;;;;;55.88;21.95;;;8.90;65.70;;;;;;5018948;28;20079;-65
2020/12/19 05:36:21;;;;;;;59.92;24.05;;;8.90;65.80;;;;;;5028035;28;20033;-65
2020/12/19 05:38:47;;;;;;;61.03;25.15;;;8.90;65.70;;;;;;5036114;28;20029;-65
2020/12/19 05:41:14;;;;;;;66.25;25.88;;;8.90;65.80;;;;;;5041777;28;20174;-65
2020/12/19 05:43:50;;;;;;;59.67;24.00;;;8.90;66.00;;;;;;5022604;28;20033;-65
2020/12/19 05:46:33;;;;;;;77.82;26.90;;;8.90;65.90;;;;;;5024510;28;20037;-65
2020/12/19 05:49:01;;;;;;;68.25;26.73;;;8.90;66.00;;;;;;5023613;28;20079;-65
2020/12/19 05:51:28;;;;;;;70.55;26.85;;;8.90;66.10;;;;;;5026043;28;20123;-65
2020/12/19 05:54:03;;;;;;;80.75;26.38;;;8.90;66.10;;;;;;5027100;28;20473;-65
2020/12/19 05:56:30;;;;;;;64.78;25.45;;;8.90;66.00;;;;;;5023909;28;20116;-65
2020/12/19 05:59:02;;;;;;;73.57;27.73;;;8.90;66.00;;;;;;5017635;28;20037;-65
2020/12/19 06:01:30;;;;;;;69.85;28.33;;;8.90;66.10;;;;;;5026498;28;20040;-65
2020/12/19 06:04:01;;;;;;;74.22;27.17;;;8.90;66.10;;;;;;5043350;28;20079;-65
2020/12/19 06:06:27;;;;;;;76.55;28.77;;;8.90;66.10;;;;;;5029754;28;20037;-65
2020/12/19 06:08:54;;;;;;;76.72;26.92;;;8.90;66.10;;;;;;5028536;28;20033;-65
2020/12/19 06:11:23;;;;;;;67.38;26.92;;;8.90;66.20;;;;;;5027856;28;20069;-65
2020/12/19 06:13:55;;;;;;;68.65;25.67;;;8.90;66.20;;;;;;5028930;28;20048;-65
2020/12/19 06:16:22;;;;;;;69.47;26.80;;;8.90;66.20;;;;;;5025333;28;20044;-65
2020/12/19 06:18:47;;;;;;;70.30;26.98;;;8.90;66.20;;;;;;5044398;28;20526;-65
2020/12/19 06:21:13;;;;;;;69.10;27.30;;;8.90;66.20;;;;;;5028778;28;20073;-65
2020/12/19 06:23:40;;;;;;;79.50;27.35;;;8.80;66.10;;;;;;5021631;28;20071;-65
2020/12/19 06:26:08;;;;;;;79.38;26.30;;;8.90;66.30;;;;;;5026372;28;20029;-65
2020/12/19 06:28:40;;;;;;;68.85;26.35;;;8.80;66.10;;;;;;5028606;28;20044;-65
2020/12/19 06:31:14;;;;;;;70.40;26.02;;;8.80;66.10;;;;;;5026244;28;20500;-65
2020/12/19 06:33:42;;;;;;;75.88;25.65;;;8.80;66.10;;;;;;5032321;28;20529;-65
2020/12/19 06:36:16;;;;;;;71.22;26.17;;;8.80;66.30;;;;;;5030222;28;20644;-65
2020/12/19 06:38:48;;;;;;;78.65;27.08;;;8.80;66.30;;;;;;5032204;28;20049;-65
2020/12/19 06:41:40;;;;;;;80.70;26.88;;;8.80;66.10;;;;;;5029836;28;20045;-65
2020/12/19 06:44:16;;;;;;;73.80;26.83;;;8.80;66.20;;;;;;5031553;28;20040;-65
2020/12/19 06:46:42;;;;;;;89.63;27.15;;;8.80;66.30;;;;;;5031263;28;20033;-65
2020/12/19 06:49:26;;;;;;;85.05;26.13;;;8.70;66.30;;;;;;5025293;28;20409;-65
2020/12/19 06:52:01;;;;;;;80.25;27.30;;;8.80;66.30;;;;;;5042534;28;20036;-65
2020/12/19 06:54:36;;;;;;;82.47;27.50;;;8.70;66.40;;;;;;5024537;28;24078;-65
2020/12/19 06:57:04;;;;;;;78.10;27.08;;;8.70;66.40;;;;;;5025310;28;20041;-65
2020/12/19 06:59:31;;;;;;;90.72;28.88;;;8.70;66.30;;;;;;5025458;28;20147;-65
2020/12/19 07:02:17;;;;;;;80.13;28.13;;;8.70;66.40;;;;;;5022220;28;20041;-65
2020/12/19 07:04:44;;;;;;;78.22;28.10;;;8.80;66.50;;;;;;5019793;28;20292;-65
2020/12/19 07:07:12;;;;;;;88.57;28.10;;;8.80;66.70;;;;;;5024315;28;20091;-65
2020/12/19 07:09:38;;;;;;;94.75;27.60;;;8.80;66.60;;;;;;5025777;28;20041;-65
2020/12/19 07:12:04;;;;;;;93.15;28.98;;;8.80;66.70;;;;;;5023315;28;20060;-65
2020/12/19 07:14:42;;;;;;;89.93;29.30;;;8.80;66.60;;;;;;5042396;28;20954;-65
2020/12/19 07:17:18;;;;;;;95.80;29.42;;;8.80;66.60;;;;;;5028628;28;20044;-65
2020/12/19 07:19:45;;;;;;;87.35;29.13;;;8.80;66.70;;;;;;5023752;28;20036;-65
2020/12/19 07:22:11;;;;;;;89.55;29.08;;;8.80;66.70;;;;;;5020737;28;20045;-65
2020/12/19 07:24:37;;;;;;;97.10;28.73;;;8.80;66.80;;;;;;5018029;28;20397;-64
2020/12/19 07:27:03;;;;;;;98.32;30.17;;;8.80;66.70;;;;;;5019502;28;20033;-65
2020/12/19 07:29:29;;;;;;;102.07;31.27;;;8.80;66.70;;;;;;5022298;28;20041;-65
2020/12/19 07:31:57;;;;;;;90.32;29.25;;;8.90;66.80;;;;;;5023826;28;20037;-65
2020/12/19 07:34:23;;;;;;;109.32;29.75;;;8.90;66.80;;;;;;5014119;28;20084;-65
2020/12/19 07:36:51;;;;;;;106.47;31.67;;;8.90;66.80;;;;;;5025383;28;20971;-65
2020/12/19 07:39:19;;;;;;;103.50;29.88;;;8.90;66.80;;;;;;5020510;28;20497;-65
2020/12/19 07:42:01;;;;;;;107.70;30.88;;;8.90;66.80;;;;;;5017374;28;20055;-65
2020/12/19 07:44:27;;;;;;;101.47;31.77;;;8.90;66.80;;;;;;5023579;28;20041;-64
2020/12/19 07:47:02;;;;;;;102.63;30.25;;;8.90;66.90;;;;;;5023278;28;20131;-65
2020/12/19 07:49:30;;;;;;;103.13;31.15;;;8.90;66.90;;;;;;5018341;28;20357;-65
2020/12/19 07:52:22;;;;;;;115.22;32.60;;;8.90;66.90;;;;;;5021401;28;20041;-65
2020/12/19 07:55:06;;;;;;;104.03;28.60;;;8.90;66.90;;;;;;5020382;28;20525;-65
2020/12/19 07:57:33;;;;;;;109.05;29.77;;;9.00;66.90;;;;;;5025641;28;20049;-65
2020/12/19 07:59:59;;;;;;;104.63;29.50;;;9.00;66.90;;;;;;5019482;28;20037;-65
2020/12/19 08:02:25;;;;;;;124.68;31.75;;;9.00;66.80;;;;;;5027127;28;20060;-65
2020/12/19 08:04:58;;;;;;;115.47;31.95;;;9.00;66.90;;;;;;5026601;28;20195;-65
2020/12/19 08:07:26;;;;;;;107.07;30.88;;;9.00;67.00;;;;;;5027915;28;20044;-65
2020/12/19 08:10:09;;;;;;;108.22;30.85;;;9.00;66.90;;;;;;5016476;28;20045;-65
2020/12/19 08:12:36;;;;;;;111.07;31.08;;;9.00;67.00;;;;;;5018652;28;20042;-65
2020/12/19 08:15:23;;;;;;;108.65;29.42;;;9.10;67.00;;;;;;5023224;28;20054;-65
2020/12/19 08:17:57;;;;;;;116.22;30.48;;;9.10;66.90;;;;;;5025241;28;20438;-65
2020/12/19 08:20:26;;;;;;;117.03;32.92;;;9.10;66.90;;;;;;5016586;28;20048;-65
2020/12/19 08:22:54;;;;;;;120.13;30.85;;;9.10;67.00;;;;;;5015608;28;20071;-65
2020/12/19 08:25:21;;;;;;;106.80;28.42;;;9.10;67.00;;;;;;5021773;28;20045;-65
2020/12/19 08:27:47;;;;;;;110.55;29.73;;;9.20;67.00;;;;;;5023020;28;20037;-65
2020/12/19 08:30:24;;;;;;;119.57;30.65;;;9.20;66.90;;;;;;5015856;28;20091;-65
2020/12/19 08:32:59;;;;;;;126.03;31.27;;;9.20;66.90;;;;;;5018332;28;20042;-65
2020/12/19 08:35:36;;;;;;;112.85;30.60;;;9.20;67.00;;;;;;5024726;28;20166;-65
2020/12/19 08:38:03;;;;;;;113.68;30.23;;;9.20;67.10;;;;;;5024332;28;20096;-65
2020/12/19 08:40:43;;;;;;;110.05;31.75;;;9.30;67.10;;;;;;5019392;28;20055;-65
2020/12/19 08:43:10;;;;;;;125.35;31.35;;;9.30;67.30;;;;;;5024876;28;20041;-65
2020/12/19 08:45:37;;;;;;;118.47;31.63;;;9.40;67.30;;;;;;5024518;28;20045;-65
2020/12/19 08:48:08;;;;;;;120.07;32.50;;;9.40;67.30;;;;;;5030538;28;20188;-65
2020/12/19 08:50:37;;;;;;;115.60;31.67;;;9.40;67.40;;;;;;5022349;28;20491;-65
2020/12/19 08:53:05;;;;;;;109.25;31.90;;;9.50;67.40;;;;;;5028835;28;20586;-65
2020/12/19 08:55:31;;;;;;;115.93;31.85;;;9.50;67.40;;;;;;5025853;28;20086;-65
2020/12/19 08:57:56;;;;;;;108.82;30.48;;;9.60;67.30;;;;;;5024184;28;20029;-65
2020/12/19 09:00:22;;;;;;;114.63;30.95;;;9.60;67.30;;;;;;5019079;28;20044;-65
2020/12/19 09:02:50;;;;;;;100.47;30.88;;;9.70;67.40;;;;;;5021379;28;20045;-65
2020/12/19 09:05:15;;;;;;;96.80;30.52;;;9.70;67.40;;;;;;5025510;28;20278;-65
2020/12/19 09:07:41;;;;;;;91.82;28.83;;;9.80;67.50;;;;;;5021168;28;20202;-65
2020/12/19 09:10:26;;;;;;;106.65;30.33;;;9.80;67.40;;;;;;5016330;28;20105;-65
2020/12/19 09:13:20;;;;;;;106.97;29.95;;;9.90;67.40;;;;;;5023485;28;20033;-65
2020/12/19 09:15:47;;;;;;;89.38;29.42;;;9.90;67.40;;;;;;5023167;28;20045;-65
2020/12/19 09:18:17;;;;;;;95.10;28.55;;;10.00;67.60;;;;;;5023592;28;20049;-65
2020/12/19 09:20:44;;;;;;;88.22;27.92;;;10.00;67.50;;;;;;5019571;28;20061;-65
2020/12/19 09:23:10;;;;;;;90.97;29.10;;;10.00;67.50;;;;;;5022756;28;20592;-65
2020/12/19 09:25:36;;;;;;;83.85;30.42;;;10.10;67.50;;;;;;5022818;28;21618;-65
2020/12/19 09:28:02;;;;;;;94.93;30.92;;;10.20;67.60;;;;;;5020808;28;20139;-65
2020/12/19 09:30:28;;;;;;;94.95;29.38;;;10.20;67.60;;;;;;5020006;28;20039;-65
2020/12/19 09:32:57;;;;;;;83.00;29.63;;;10.30;67.70;;;;;;5023971;28;20405;-65
2020/12/19 09:35:26;;;;;;;80.25;28.23;;;10.30;67.60;;;;;;5023363;28;20037;-65
2020/12/19 09:37:52;;;;;;;85.13;29.08;;;10.40;67.60;;;;;;5024072;28;20033;-65
2020/12/19 09:40:18;;;;;;;88.38;29.58;;;10.50;68.00;;;;;;5021168;28;20390;-65
2020/12/19 09:42:44;;;;;;;78.82;27.58;;;10.50;67.60;;;;;;5023323;28;20091;-65
2020/12/19 09:45:09;;;;;;;80.05;28.38;;;10.60;67.70;;;;;;5021646;28;20385;-65
2020/12/19 09:47:35;;;;;;;76.45;29.38;;;10.70;67.60;;;;;;5019779;28;20079;-65
2020/12/19 09:50:01;;;;;;;73.70;28.80;;;10.70;67.70;;;;;;5020296;28;20452;-65
2020/12/19 09:52:26;;;;;;;68.70;27.20;;;10.80;67.70;;;;;;5005998;28;20033;-65
2020/12/19 09:54:52;;;;;;;73.50;26.92;;;10.80;67.60;;;;;;5009312;28;20689;-65
2020/12/19 09:57:17;;;;;;;58.78;24.58;;;10.90;67.70;;;;;;5017826;28;20064;-64
2020/12/19 09:59:45;;;;;;;63.38;24.45;;;11.00;67.70;;;;;;5013320;28;20686;-64
2020/12/19 10:02:11;;;;;;;51.25;24.48;;;11.00;67.60;;;;;;5016727;28;20052;-64
2020/12/19 10:04:36;;;;;;;51.97;24.80;;;11.10;67.70;;;;;;5009808;28;20037;-65
2020/12/19 10:07:02;;;;;;;49.33;23.77;;;11.30;67.70;;;;;;5015854;28;20124;-64
2020/12/19 10:09:27;;;;;;;47.13;22.90;;;11.40;67.90;;;;;;5016033;28;20103;-65
2020/12/19 10:11:56;;;;;;;41.67;21.58;;;11.80;69.50;;;;;;5018007;28;20045;-65
2020/12/19 10:14:22;;;;;;;34.65;19.48;;;12.30;69.60;;;;;;5020093;28;20123;-64
2020/12/19 10:16:48;;;;;;;31.52;18.05;;;12.90;68.70;;;;;;5017959;28;20041;-65
2020/12/19 10:19:13;;;;;;;28.73;16.67;;;13.50;68.70;;;;;;5017430;28;20500;-65
2020/12/19 10:21:39;;;;;;;28.73;15.70;;;14.30;67.90;;;;;;5019503;28;20037;-65
2020/12/19 10:24:04;;;;;;;25.30;14.90;;;14.90;64.70;;;;;;5014500;28;20037;-65
2020/12/19 10:26:30;;;;;;;24.17;14.23;;;15.30;63.40;;;;;;5016784;28;20037;-65
2020/12/19 10:28:57;;;;;;;27.95;14.50;;;15.60;61.60;;;;;;5017950;28;20127;-65
2020/12/19 10:31:30;;;;;;;25.77;14.30;;;15.80;60.90;;;;;;5013979;28;20100;-65
2020/12/19 10:33:55;;;;;;;24.20;14.68;;;15.90;60.50;;;;;;5028723;28;20409;-65
2020/12/19 10:36:23;;;;;;;22.67;13.00;;;16.20;59.50;;;;;;5016266;28;20163;-65
2020/12/19 10:38:49;;;;;;;22.73;13.77;;;16.20;58.90;;;;;;5019617;28;20101;-65
2020/12/19 10:41:15;;;;;;;21.75;13.48;;;16.20;58.30;;;;;;5017601;28;20147;-65
2020/12/19 10:43:41;;;;;;;21.55;13.50;;;16.10;57.80;;;;;;5021294;28;20511;-65
2020/12/19 10:46:07;;;;;;;23.40;13.70;;;16.00;57.00;;;;;;5016957;28;20040;-65
2020/12/19 10:48:33;;;;;;;24.70;13.68;;;15.90;57.20;;;;;;5020959;28;20416;-65
2020/12/19 10:50:59;;;;;;;25.35;13.13;;;15.90;57.40;;;;;;5012838;28;20037;-65
2020/12/19 10:53:24;;;;;;;22.95;13.80;;;15.90;56.80;;;;;;5019930;28;20131;-65
2020/12/19 10:55:51;;;;;;;20.27;12.85;;;15.90;56.50;;;;;;5030348;28;20040;-65
2020/12/19 10:58:17;;;;;;;20.35;13.00;;;15.90;56.40;;;;;;5020576;28;20068;-65
2020/12/19 11:00:42;;;;;;;26.17;14.73;;;15.90;56.30;;;;;;5016816;28;20680;-65
2020/12/19 11:03:08;;;;;;;24.48;14.50;;;15.80;56.00;;;;;;5012608;28;20052;-65
2020/12/19 11:05:39;;;;;;;22.35;13.98;;;15.80;56.10;;;;;;5026202;28;20068;-65
2020/12/19 11:08:05;;;;;;;24.00;14.32;;;15.80;56.10;;;;;;5027330;28;20022;-65
2020/12/19 11:10:30;;;;;;;22.48;13.13;;;15.80;55.90;;;;;;5026588;28;20029;-65
2020/12/19 11:12:56;;;;;;;22.80;13.05;;;15.80;56.10;;;;;;5021411;28;20078;-65
2020/12/19 11:15:24;;;;;;;20.17;12.50;;;15.90;56.10;;;;;;5022001;28;20441;-65
2020/12/19 11:17:50;;;;;;;18.95;12.05;;;16.10;56.40;;;;;;5045783;28;20029;-65
2020/12/19 11:20:16;;;;;;;22.15;12.80;;;16.50;55.80;;;;;;5030791;28;20142;-65
2020/12/19 11:22:41;;;;;;;19.95;13.02;;;16.80;55.10;;;;;;5029729;28;20044;-65
2020/12/19 11:25:07;;;;;;;17.88;12.55;;;17.00;54.40;;;;;;5041440;28;20433;-65
2020/12/19 11:27:32;;;;;;;20.67;12.48;;;17.10;54.00;;;;;;5029116;28;20045;-65
2020/12/19 11:29:58;;;;;;;23.00;12.15;;;17.30;53.70;;;;;;5029441;28;20132;-65
2020/12/19 11:32:25;;;;;;;20.65;12.57;;;17.40;53.20;;;;;;5031055;28;24994;-65
2020/12/19 11:34:50;;;;;;;18.77;12.05;;;17.50;53.00;;;;;;5029463;28;20058;-65
2020/12/19 11:37:16;;;;;;;19.17;12.20;;;17.80;52.90;;;;;;5031344;28;24155;-65
2020/12/19 11:39:42;;;;;;;18.75;12.23;;;18.10;52.00;;;;;;5029272;28;20029;-65
2020/12/19 11:42:07;;;;;;;20.88;11.63;;;18.30;51.40;;;;;;5029355;28;20140;-66
2020/12/19 11:44:33;;;;;;;18.67;11.70;;;18.50;51.20;;;;;;5028935;28;20471;-65
2020/12/19 11:46:58;;;;;;;23.05;12.13;;;18.70;50.90;;;;;;5030983;28;20069;-65
2020/12/19 11:49:24;;;;;;;18.50;11.20;;;19.00;50.00;;;;;;5031228;28;20080;-65
2020/12/19 11:51:50;;;;;;;17.20;11.93;;;19.00;49.60;;;;;;5030749;28;20055;-65
2020/12/19 11:54:15;;;;;;;16.45;10.90;;;19.20;49.50;;;;;;5028619;28;20029;-65
2020/12/19 11:56:43;;;;;;;19.67;12.15;;;19.40;49.10;;;;;;5029951;28;20593;-65
2020/12/19 11:59:10;;;;;;;19.13;11.75;;;19.50;47.70;;;;;;5026733;28;20041;-65
2020/12/19 12:01:35;;;;;;;21.98;12.85;;;19.10;47.50;;;;;;5031826;28;20441;-65
2020/12/19 12:04:01;;;;;;;19.13;12.65;;;18.70;47.80;;;;;;5029983;28;20037;-65
2020/12/19 12:06:31;;;;;;;19.00;11.60;;;18.20;48.60;;;;;;5029686;28;20429;-65
2020/12/19 12:08:58;;;;;;;18.15;11.80;;;17.90;50.00;;;;;;5030915;28;20037;-65
2020/12/19 12:11:25;;;;;;;19.77;10.88;;;18.10;51.20;;;;;;5027156;28;20080;-65
2020/12/19 12:13:50;;;;;;;18.63;11.70;;;18.80;50.50;;;;;;5025521;28;20051;-65
2020/12/19 12:16:16;;;;;;;16.15;11.30;;;19.60;49.20;;;;;;5032168;28;20065;-65
2020/12/19 12:18:42;;;;;;;15.52;10.65;;;20.20;47.50;;;;;;5025572;28;20060;-66
2020/12/19 12:21:08;;;;;;;17.85;11.48;;;20.40;46.20;;;;;;5029924;28;20102;-65
2020/12/19 12:23:33;;;;;;;17.98;11.30;;;20.40;45.80;;;;;;5030795;28;20483;-66
2020/12/19 12:25:59;;;;;;;19.60;11.20;;;20.00;46.00;;;;;;5035388;28;20034;-65
2020/12/19 12:28:25;;;;;;;17.52;11.32;;;19.70;46.40;;;;;;5033214;28;20029;-65
2020/12/19 12:30:50;;;;;;;19.77;11.52;;;19.40;46.90;;;;;;5031886;28;20053;-65
2020/12/19 12:33:16;;;;;;;17.83;12.07;;;19.30;47.30;;;;;;5033865;28;20048;-65
2020/12/19 12:35:41;;;;;;;16.60;11.15;;;19.20;47.40;;;;;;5033338;28;20037;-65